createdAt,value
2023-11-21T00:00:54.867Z,10.95
2023-11-21T00:03:43.821Z,10.96
2023-11-21T00:06:15.975Z,11.11
2023-11-21T00:08:47.670Z,11.05
2023-11-21T00:11:19.270Z,10.82
2023-11-21T00:13:51.311Z,10.89
2023-11-21T00:16:23.644Z,10.96
2023-11-21T00:18:55.491Z,11.07
2023-11-21T00:21:27.164Z,11.24
2023-11-21T00:23:58.753Z,11.01
2023-11-21T00:26:32.496Z,10.82
2023-11-21T00:29:04.249Z,10.57
2023-11-21T00:31:37.070Z,10.32
2023-11-21T00:34:08.901Z,10.51
2023-11-21T00:36:40.654Z,10.49
2023-11-21T00:39:13.200Z,10.27
2023-11-21T00:41:45.931Z,10.08
2023-11-21T00:44:18.137Z,10.09
2023-11-21T00:46:50.009Z,10.07
2023-11-21T00:49:22.064Z,10.21
2023-11-21T00:51:54.318Z,10.44
2023-11-21T00:54:26.538Z,10.30
2023-11-21T00:56:58.153Z,10.22
2023-11-21T00:59:29.782Z,10.25
2023-11-21T01:02:03.336Z,10.32
2023-11-21T01:04:35.122Z,10.23
2023-11-21T01:07:07.862Z,10.33
2023-11-21T01:09:39.727Z,10.38
2023-11-21T01:12:12.592Z,10.31
2023-11-21T01:14:44.223Z,10.23
2023-11-21T01:17:16.435Z,10.14
2023-11-21T01:19:48.340Z,9.95
2023-11-21T01:22:23.567Z,9.93
2023-11-21T01:24:53.818Z,10.03
2023-11-21T01:27:25.594Z,9.94
2023-11-21T01:29:57.499Z,9.84
2023-11-21T01:32:29.973Z,9.69
2023-11-21T01:35:01.738Z,9.60
2023-11-21T01:37:33.887Z,9.49
2023-11-21T01:40:15.144Z,9.54
2023-11-21T01:42:48.785Z,9.53
2023-11-21T01:45:21.210Z,9.72
2023-11-21T01:47:56.345Z,9.94
2023-11-21T01:50:30.031Z,9.88
2023-11-21T01:53:02.593Z,9.84
2023-11-21T01:55:35.153Z,9.88
2023-11-21T01:58:08.752Z,9.85
2023-11-21T02:00:40.855Z,9.83
2023-11-21T02:03:13.506Z,9.96
2023-11-21T02:05:45.304Z,9.84
2023-11-21T02:08:16.971Z,9.93
2023-11-21T02:10:49.412Z,10.14
2023-11-21T02:13:21.320Z,10.26
2023-11-21T02:15:55.520Z,10.18
2023-11-21T02:18:30.160Z,10.16
2023-11-21T02:21:03.956Z,10.27
2023-11-21T02:23:35.847Z,10.10
2023-11-21T02:26:09.809Z,10.06
2023-11-21T02:28:42.232Z,10.26
2023-11-21T02:31:14.734Z,10.27
2023-11-21T02:33:46.646Z,10.16
2023-11-21T02:36:18.206Z,10.32
2023-11-21T02:38:49.842Z,10.31
2023-11-21T02:41:21.459Z,10.08
2023-11-21T02:43:53.191Z,10.09
2023-11-21T02:46:24.881Z,10.01
2023-11-21T02:48:57.547Z,9.75
2023-11-21T02:51:29.480Z,9.76
2023-11-21T02:54:03.792Z,9.87
2023-11-21T02:56:35.782Z,10.05
2023-11-21T02:59:07.790Z,9.92
2023-11-21T03:01:39.637Z,10.07
2023-11-21T03:04:11.518Z,10.11
2023-11-21T03:06:43.151Z,9.98
2023-11-21T03:09:15.098Z,9.88
2023-11-21T03:11:46.726Z,10.15
2023-11-21T03:14:18.614Z,10.10
2023-11-21T03:16:51.983Z,10.01
2023-11-21T03:19:23.686Z,10.14
2023-11-21T03:21:55.418Z,10.09
2023-11-21T03:24:27.732Z,9.93
2023-11-21T03:26:59.361Z,10.15
2023-11-21T03:29:31.092Z,10.26
2023-11-21T03:32:03.139Z,10.15
2023-11-21T03:34:35.060Z,10.26
2023-11-21T03:37:07.042Z,10.30
2023-11-21T03:39:38.831Z,10.14
2023-11-21T03:42:10.441Z,10.23
2023-11-21T03:44:42.043Z,10.39
2023-11-21T03:47:13.607Z,10.19
2023-11-21T03:49:45.515Z,10.06
2023-11-21T03:52:17.385Z,10.09
2023-11-21T03:54:49.204Z,10.17
2023-11-21T03:57:21.001Z,10.05
2023-11-21T03:59:55.915Z,10.14
2023-11-21T04:02:29.241Z,10.35
2023-11-21T04:05:01.120Z,10.19
2023-11-21T04:07:32.844Z,10.18
2023-11-21T04:10:05.212Z,10.35
2023-11-21T04:12:37.123Z,10.27
2023-11-21T04:15:10.910Z,10.13
2023-11-21T04:17:42.690Z,10.31
2023-11-21T04:20:15.882Z,10.29
2023-11-21T04:22:48.509Z,10.14
2023-11-21T04:25:20.846Z,10.08
2023-11-21T04:27:52.945Z,9.88
2023-11-21T04:30:25.171Z,9.65
2023-11-21T04:32:57.090Z,9.53
2023-11-21T04:35:28.805Z,9.46
2023-11-21T04:38:00.351Z,9.44
2023-11-21T04:40:31.937Z,9.40
2023-11-21T04:43:05.121Z,9.35
2023-11-21T04:45:36.664Z,9.26
2023-11-21T04:48:09.323Z,9.22
2023-11-21T04:50:41.056Z,9.14
2023-11-21T04:53:15.305Z,9.09
2023-11-21T04:55:47.241Z,9.09
2023-11-21T04:58:20.538Z,9.02
2023-11-21T05:00:52.285Z,8.91
2023-11-21T05:03:25.432Z,8.87
2023-11-21T05:05:57.498Z,8.84
2023-11-21T05:08:29.043Z,8.89
2023-11-21T05:11:01.456Z,8.92
2023-11-21T05:13:34.172Z,9.07
2023-11-21T05:16:08.501Z,9.03
2023-11-21T05:18:41.680Z,9.13
2023-11-21T05:21:13.522Z,9.06
2023-11-21T05:23:45.159Z,9.14
2023-11-21T05:26:16.838Z,9.04
2023-11-21T05:28:49.033Z,9.02
2023-11-21T05:31:21.017Z,9.07
2023-11-21T05:33:53.027Z,9.07
2023-11-21T05:36:25.069Z,9.00
2023-11-21T05:38:56.773Z,8.98
2023-11-21T05:41:28.632Z,8.84
2023-11-21T05:44:00.410Z,8.73
2023-11-21T05:46:32.380Z,8.76
2023-11-21T05:49:05.202Z,8.62
2023-11-21T05:51:37.347Z,8.51
2023-11-21T05:54:10.436Z,8.43
2023-11-21T05:56:42.751Z,8.29
2023-11-21T05:59:16.062Z,8.24
2023-11-21T06:01:47.868Z,8.15
2023-11-21T06:04:20.252Z,8.07
2023-11-21T06:06:52.226Z,8.01
2023-11-21T06:09:24.089Z,7.96
2023-11-21T06:11:56.127Z,8.13
2023-11-21T06:14:28.218Z,8.29
2023-11-21T06:17:00.399Z,8.35
2023-11-21T06:19:32.332Z,8.39
2023-11-21T06:22:04.381Z,8.50
2023-11-21T06:24:36.564Z,8.44
2023-11-21T06:27:09.868Z,8.37
2023-11-21T06:29:43.678Z,8.34
2023-11-21T06:32:17.832Z,8.40
2023-11-21T06:34:50.638Z,8.47
2023-11-21T06:37:25.045Z,8.48
2023-11-21T06:39:59.257Z,8.47
2023-11-21T06:42:32.495Z,8.48
2023-11-21T06:45:06.434Z,8.51
2023-11-21T06:47:41.959Z,8.48
2023-11-21T06:50:17.241Z,8.44
2023-11-21T06:52:50.048Z,8.36
2023-11-21T06:55:22.431Z,8.32
2023-11-21T06:57:54.889Z,8.45
2023-11-21T07:00:27.073Z,8.53
2023-11-21T07:02:59.438Z,8.57
2023-11-21T07:05:31.903Z,8.67
2023-11-21T07:08:05.702Z,8.67
2023-11-21T07:10:39.193Z,8.72
2023-11-21T07:13:13.745Z,8.89
2023-11-21T07:15:46.555Z,8.85
2023-11-21T07:18:19.808Z,8.89
2023-11-21T07:20:53.211Z,8.92
2023-11-21T07:23:25.252Z,8.98
2023-11-21T07:25:57.865Z,8.97
2023-11-21T07:28:31.492Z,9.23
2023-11-21T07:31:05.866Z,9.44
2023-11-21T07:33:39.687Z,9.40
2023-11-21T07:36:13.379Z,9.55
2023-11-21T07:38:47.573Z,9.70
2023-11-21T07:41:28.875Z,9.74
2023-11-21T07:44:03.744Z,10.01
2023-11-21T07:46:36.395Z,10.12
2023-11-21T07:49:08.154Z,10.07
2023-11-21T07:51:39.818Z,10.45
2023-11-21T07:54:11.750Z,10.77
2023-11-21T07:56:43.609Z,10.84
2023-11-21T07:59:15.885Z,11.13
2023-11-21T08:01:47.566Z,11.45
2023-11-21T08:04:20.062Z,11.67
2023-11-21T08:06:52.375Z,11.70
2023-11-21T08:09:24.951Z,11.93
2023-11-21T08:11:57.793Z,12.04
2023-11-21T08:14:29.995Z,12.08
2023-11-21T08:17:02.391Z,12.22
2023-11-21T08:19:35.188Z,12.41
2023-11-21T08:22:09.436Z,12.37
2023-11-21T08:24:41.690Z,12.36
2023-11-21T08:27:17.492Z,12.52
2023-11-21T08:29:49.465Z,12.55
2023-11-21T08:32:21.716Z,12.78
2023-11-21T08:34:53.989Z,13.26
2023-11-21T08:37:28.219Z,14.21
2023-11-21T08:40:03.709Z,15.01
2023-11-21T08:42:36.856Z,14.83
2023-11-21T08:45:12.064Z,15.81
2023-11-21T08:47:45.629Z,16.24
2023-11-21T08:50:18.197Z,17.20
2023-11-21T08:52:51.366Z,18.81
2023-11-21T08:55:24.405Z,19.60
2023-11-21T08:57:57.754Z,20.36
2023-11-21T09:00:31.211Z,21.19
2023-11-21T09:03:09.775Z,21.92
2023-11-21T09:05:43.263Z,22.25
2023-11-21T09:08:15.636Z,22.82
2023-11-21T09:10:48.561Z,23.47
2023-11-21T09:13:22.286Z,23.74
2023-11-21T09:15:55.486Z,22.79
2023-11-21T09:18:27.358Z,22.70
2023-11-21T09:21:00.182Z,22.64
2023-11-21T09:23:32.293Z,22.12
2023-11-21T09:26:04.777Z,21.56
2023-11-21T09:28:39.759Z,20.94
2023-11-21T09:31:11.720Z,20.51
2023-11-21T09:33:43.708Z,20.24
2023-11-21T09:36:18.547Z,19.79
2023-11-21T09:38:51.342Z,19.24
2023-11-21T09:41:36.314Z,18.72
2023-11-21T09:44:12.296Z,18.28
2023-11-21T09:46:46.321Z,17.89
2023-11-21T09:49:21.016Z,17.42
2023-11-21T09:51:52.577Z,17.13
2023-11-21T09:54:24.894Z,16.83
2023-11-21T09:56:57.182Z,16.52
2023-11-21T09:59:33.341Z,16.31
2023-11-21T10:02:06.697Z,16.30
2023-11-21T10:04:38.836Z,16.18
2023-11-21T10:07:13.627Z,15.71
2023-11-21T10:09:45.987Z,15.46
2023-11-21T10:12:18.975Z,15.28
2023-11-21T10:14:53.654Z,15.12
2023-11-21T10:17:31.560Z,15.11
2023-11-21T10:20:07.801Z,15.09
2023-11-21T10:22:42.481Z,14.85
2023-11-21T10:25:15.779Z,14.72
2023-11-21T10:27:52.997Z,14.65
2023-11-21T10:30:27.249Z,14.54
2023-11-21T10:33:06.034Z,14.30
2023-11-21T10:35:52.418Z,14.23
2023-11-21T10:38:27.272Z,14.28
2023-11-21T10:40:59.642Z,14.12
2023-11-21T10:43:32.761Z,13.85
2023-11-21T10:46:05.700Z,13.81
2023-11-21T10:48:39.382Z,13.83
2023-11-21T10:51:12.802Z,13.57
2023-11-21T10:53:48.154Z,13.49
2023-11-21T10:56:25.738Z,13.48
2023-11-21T10:58:59.926Z,13.47
2023-11-21T11:01:34.842Z,13.42
2023-11-21T11:04:16.069Z,13.26
2023-11-21T11:06:53.543Z,13.13
2023-11-21T11:09:26.340Z,12.92
2023-11-21T11:12:00.266Z,12.82
2023-11-21T11:14:33.529Z,12.90
2023-11-21T11:17:07.352Z,13.01
2023-11-21T11:19:40.697Z,12.90
2023-11-21T11:22:26.569Z,12.96
2023-11-21T11:25:21.941Z,13.16
2023-11-21T11:28:04.508Z,13.19
2023-11-21T11:30:50.075Z,13.03
2023-11-21T11:33:36.726Z,13.29
2023-11-21T11:36:17.911Z,13.44
2023-11-21T11:38:51.471Z,13.20
2023-11-21T11:41:30.963Z,13.18
2023-11-21T11:44:03.824Z,13.20
2023-11-21T11:46:48.199Z,12.92
2023-11-21T11:49:33.480Z,12.80
2023-11-21T11:52:37.385Z,12.91
2023-11-21T11:55:12.536Z,12.98
2023-11-21T11:57:45.888Z,12.68
2023-11-21T12:00:23.763Z,12.80
2023-11-21T12:02:58.294Z,12.96
2023-11-21T12:05:34.123Z,12.77
2023-11-21T12:08:08.461Z,12.86
2023-11-21T12:10:42.116Z,13.06
2023-11-21T12:13:15.208Z,13.09
2023-11-21T12:15:48.498Z,12.86
2023-11-21T12:18:21.439Z,12.86
2023-11-21T12:20:55.580Z,12.96
2023-11-21T12:23:30.920Z,12.79
2023-11-21T12:26:03.618Z,12.79
2023-11-21T12:28:36.064Z,12.95
2023-11-21T12:31:19.928Z,12.73
2023-11-21T12:33:55.257Z,12.71
2023-11-21T12:36:30.197Z,12.90
2023-11-21T12:39:03.886Z,12.95
2023-11-21T12:41:36.496Z,12.80
2023-11-21T12:44:16.902Z,12.57
2023-11-21T12:46:49.409Z,12.53
2023-11-21T12:49:23.497Z,12.45
2023-11-21T12:51:56.712Z,12.27
2023-11-21T12:54:31.237Z,12.48
2023-11-21T12:57:09.743Z,12.72
2023-11-21T12:59:46.752Z,12.70
2023-11-21T13:02:19.542Z,12.47
2023-11-21T13:04:59.824Z,12.66
2023-11-21T13:07:32.230Z,12.71
2023-11-21T13:10:06.948Z,12.56
2023-11-21T13:12:41.567Z,12.31
2023-11-21T13:15:19.146Z,12.45
2023-11-21T13:17:52.601Z,12.61
2023-11-21T13:20:25.736Z,12.52
2023-11-21T13:23:00.526Z,12.51
2023-11-21T13:25:33.742Z,12.57
2023-11-21T13:28:06.209Z,12.39
2023-11-21T13:30:40.838Z,12.24
2023-11-21T13:33:20.157Z,12.42
2023-11-21T13:35:53.272Z,12.36
2023-11-21T13:38:26.499Z,12.13
2023-11-21T13:40:59.969Z,11.99
2023-11-21T13:43:32.754Z,12.03
2023-11-21T13:46:14.941Z,11.96
2023-11-21T13:48:52.501Z,12.07
2023-11-21T13:51:38.984Z,12.39
2023-11-21T13:54:11.431Z,12.41
2023-11-21T13:56:47.299Z,12.29
2023-11-21T13:59:24.477Z,12.48
2023-11-21T14:01:59.795Z,12.43
2023-11-21T14:04:56.513Z,12.31
2023-11-21T14:07:37.461Z,12.46
2023-11-21T14:10:15.880Z,12.45
2023-11-21T14:12:48.495Z,12.22
2023-11-21T14:15:20.547Z,12.18
2023-11-21T14:17:53.137Z,12.23
2023-11-21T14:20:26.459Z,12.12
2023-11-21T14:22:58.921Z,12.30
2023-11-21T14:25:31.896Z,12.28
2023-11-21T14:28:07.559Z,12.12
2023-11-21T14:30:41.177Z,11.98
2023-11-21T14:33:13.811Z,11.90
2023-11-21T14:35:48.474Z,11.88
2023-11-21T14:38:22.573Z,11.78
2023-11-21T14:40:56.830Z,11.73
2023-11-21T14:43:31.390Z,11.69
2023-11-21T14:46:08.515Z,11.58
2023-11-21T14:48:44.466Z,11.55
2023-11-21T14:51:33.137Z,11.50
2023-11-21T14:54:08.742Z,11.44
2023-11-21T14:56:45.303Z,11.49
2023-11-21T14:59:18.833Z,11.56
2023-11-21T15:01:56.948Z,11.56
2023-11-21T15:04:37.685Z,11.58
2023-11-21T15:07:13.193Z,11.47
2023-11-21T15:09:46.553Z,11.30
2023-11-21T15:12:21.366Z,11.29
2023-11-21T15:14:57.021Z,11.20
2023-11-21T15:17:32.282Z,11.04
2023-11-21T15:20:08.259Z,11.00
2023-11-21T15:22:42.468Z,10.96
2023-11-21T15:25:15.280Z,10.92
2023-11-21T15:27:50.520Z,10.92
2023-11-21T15:30:26.140Z,10.94
2023-11-21T15:32:58.584Z,10.95
2023-11-21T15:35:31.955Z,11.08
2023-11-21T15:38:04.160Z,11.18
2023-11-21T15:40:36.867Z,11.05
2023-11-21T15:43:09.783Z,10.90
2023-11-21T15:45:42.060Z,10.73
2023-11-21T15:48:14.384Z,10.69
2023-11-21T15:50:48.111Z,10.68
2023-11-21T15:53:20.962Z,10.75
2023-11-21T15:55:53.295Z,10.76
2023-11-21T15:58:26.157Z,10.79
2023-11-21T16:00:58.978Z,10.81
2023-11-21T16:03:34.833Z,10.73
2023-11-21T16:06:10.963Z,10.66
2023-11-21T16:08:43.226Z,10.54
2023-11-21T16:11:15.712Z,10.42
2023-11-21T16:13:50.077Z,10.33
2023-11-21T16:16:26.550Z,10.33
2023-11-21T16:18:58.321Z,10.29
2023-11-21T16:21:31.752Z,10.30
2023-11-21T16:24:04.410Z,10.33
2023-11-21T16:26:37.024Z,10.31
2023-11-21T16:29:09.070Z,10.23
2023-11-21T16:31:41.566Z,10.24
2023-11-21T16:34:20.518Z,10.15
2023-11-21T16:36:53.344Z,10.12
2023-11-21T16:39:25.895Z,10.04
2023-11-21T16:41:58.606Z,9.95
2023-11-21T16:44:35.526Z,10.01
2023-11-21T16:47:08.493Z,10.01
2023-11-21T16:49:41.953Z,9.89
2023-11-21T16:52:14.234Z,9.79
2023-11-21T16:54:46.372Z,9.68
2023-11-21T16:57:19.083Z,9.56
2023-11-21T16:59:52.316Z,9.47
2023-11-21T17:02:25.161Z,9.38
2023-11-21T17:04:57.663Z,9.31
2023-11-21T17:07:30.763Z,9.26
2023-11-21T17:10:04.111Z,9.16
2023-11-21T17:12:36.267Z,8.97
2023-11-21T17:15:10.440Z,8.97
2023-11-21T17:17:42.748Z,8.92
2023-11-21T17:20:16.013Z,8.95
2023-11-21T17:22:49.132Z,8.97
2023-11-21T17:25:21.505Z,8.84
2023-11-21T17:27:53.411Z,8.89
2023-11-21T17:30:25.506Z,8.78
2023-11-21T17:32:58.202Z,8.70
2023-11-21T17:35:30.432Z,8.61
2023-11-21T17:38:02.649Z,8.49
2023-11-21T17:40:36.159Z,8.39
2023-11-21T17:43:09.014Z,8.26
2023-11-21T17:45:41.485Z,8.25
2023-11-21T17:48:14.080Z,8.24
2023-11-21T17:50:46.321Z,8.15
2023-11-21T17:53:19.005Z,8.23
2023-11-21T17:55:51.385Z,8.26
2023-11-21T17:58:23.237Z,8.25
2023-11-21T18:00:55.528Z,8.23
2023-11-21T18:03:27.814Z,8.16
2023-11-21T18:06:00.048Z,8.15
2023-11-21T18:08:31.877Z,8.06
2023-11-21T18:11:06.375Z,8.00
2023-11-21T18:13:38.699Z,7.94
2023-11-21T18:16:12.078Z,7.80
2023-11-21T18:18:43.976Z,7.83
2023-11-21T18:21:16.161Z,7.79
2023-11-21T18:23:48.418Z,7.76
2023-11-21T18:26:23.657Z,7.74
2023-11-21T18:28:55.916Z,7.69
2023-11-21T18:31:27.947Z,7.67
2023-11-21T18:34:00.763Z,7.72
2023-11-21T18:36:33.016Z,7.73
2023-11-21T18:39:04.965Z,7.72
2023-11-21T18:41:37.114Z,7.69
2023-11-21T18:44:10.127Z,7.68
2023-11-21T18:46:43.118Z,7.64
2023-11-21T18:49:15.002Z,7.65
2023-11-21T18:51:50.127Z,7.72
2023-11-21T18:54:21.325Z,7.74
2023-11-21T18:56:53.892Z,7.66
2023-11-21T18:59:26.171Z,7.69
2023-11-21T19:01:59.104Z,7.61
2023-11-21T19:04:31.310Z,7.59
2023-11-21T19:07:03.559Z,7.59
2023-11-21T19:09:37.002Z,7.52
2023-11-21T19:12:14.293Z,7.57
2023-11-21T19:14:48.523Z,7.51
2023-11-21T19:17:21.618Z,7.43
2023-11-21T19:19:53.652Z,7.42
2023-11-21T19:22:25.456Z,7.33
2023-11-21T19:24:57.959Z,7.32
2023-11-21T19:27:40.014Z,7.29
2023-11-21T19:30:15.675Z,7.23
2023-11-21T19:33:00.942Z,7.32
2023-11-21T19:35:40.236Z,7.41
2023-11-21T19:38:12.423Z,7.45
2023-11-21T19:40:45.864Z,7.44
2023-11-21T19:43:18.729Z,7.38
2023-11-21T19:46:05.582Z,7.40
2023-11-21T19:48:39.341Z,7.31
2023-11-21T19:51:13.148Z,7.30
2023-11-21T19:53:45.532Z,7.17
2023-11-21T19:56:18.590Z,7.15
2023-11-21T19:58:51.928Z,7.14
2023-11-21T20:01:24.324Z,7.00
2023-11-21T20:03:58.944Z,6.91
2023-11-21T20:06:35.065Z,6.89
2023-11-21T20:09:14.793Z,6.87
2023-11-21T20:11:56.082Z,6.86
2023-11-21T20:14:32.128Z,6.80
2023-11-21T20:17:04.550Z,6.90
2023-11-21T20:19:38.127Z,6.93
2023-11-21T20:22:10.581Z,6.90
2023-11-21T20:24:42.439Z,6.98
2023-11-21T20:27:15.792Z,6.88
2023-11-21T20:29:47.725Z,6.80
2023-11-21T20:32:25.431Z,6.81
2023-11-21T20:34:57.471Z,6.71
2023-11-21T20:37:29.637Z,6.66
2023-11-21T20:40:01.872Z,6.60
2023-11-21T20:42:33.915Z,6.62
2023-11-21T20:45:07.115Z,6.66
2023-11-21T20:47:39.735Z,6.55
2023-11-21T20:50:13.982Z,6.51
2023-11-21T20:52:46.336Z,6.45
2023-11-21T20:55:18.800Z,6.46
2023-11-21T20:57:51.803Z,6.60
2023-11-21T21:00:27.192Z,6.56
2023-11-21T21:02:59.092Z,6.68
2023-11-21T21:05:32.106Z,6.69
2023-11-21T21:08:15.439Z,6.64
2023-11-21T21:10:48.012Z,6.72
2023-11-21T21:13:20.604Z,6.68
2023-11-21T21:15:52.397Z,6.55
2023-11-21T21:18:27.734Z,6.50
2023-11-21T21:21:00.910Z,6.35
2023-11-21T21:23:32.760Z,6.26
2023-11-21T21:26:09.171Z,6.16
2023-11-21T21:28:41.961Z,6.07
2023-11-21T21:31:14.318Z,5.97
2023-11-21T21:33:46.390Z,5.87
2023-11-21T21:36:18.551Z,5.81
2023-11-21T21:38:52.342Z,5.68
2023-11-21T21:41:25.957Z,5.76
2023-11-21T21:43:59.556Z,5.73
2023-11-21T21:46:31.449Z,5.73
2023-11-21T21:49:04.792Z,5.75
2023-11-21T21:51:38.321Z,5.80
2023-11-21T21:54:10.766Z,6.12
2023-11-21T21:56:42.528Z,6.11
2023-11-21T21:59:14.383Z,6.36
2023-11-21T22:01:49.471Z,6.75
2023-11-21T22:04:20.237Z,6.55
2023-11-21T22:06:51.997Z,6.43
2023-11-21T22:09:34.162Z,6.39
2023-11-21T22:12:07.397Z,6.38
2023-11-21T22:14:39.360Z,6.19
2023-11-21T22:17:12.035Z,6.12
2023-11-21T22:19:44.263Z,5.97
2023-11-21T22:22:16.254Z,5.94
2023-11-21T22:24:48.486Z,5.94
2023-11-21T22:27:20.860Z,5.87
2023-11-21T22:29:52.953Z,5.83
2023-11-21T22:32:25.000Z,5.87
2023-11-21T22:34:57.978Z,5.90
2023-11-21T22:37:30.014Z,6.03
2023-11-21T22:40:01.908Z,6.03
2023-11-21T22:42:34.003Z,6.11
2023-11-21T22:45:09.270Z,6.21
2023-11-21T22:47:39.710Z,6.19
2023-11-21T22:50:15.128Z,6.18
2023-11-21T22:52:47.482Z,6.14
2023-11-21T22:55:20.118Z,6.15
2023-11-21T22:57:51.714Z,6.07
2023-11-21T23:00:31.239Z,6.03
2023-11-21T23:03:03.437Z,6.08
2023-11-21T23:05:35.656Z,6.00
2023-11-21T23:08:10.126Z,5.95
2023-11-21T23:10:42.212Z,5.84
2023-11-21T23:13:14.819Z,5.81
2023-11-21T23:15:48.431Z,5.86
2023-11-21T23:18:27.918Z,5.85
2023-11-21T23:21:01.242Z,5.99
2023-11-21T23:23:33.228Z,6.03
2023-11-21T23:26:05.249Z,6.03
2023-11-21T23:28:37.335Z,6.03
2023-11-21T23:31:09.964Z,6.13
2023-11-21T23:33:42.284Z,6.25
2023-11-21T23:36:14.426Z,6.19
2023-11-21T23:38:46.041Z,6.29
2023-11-21T23:41:19.211Z,6.23
2023-11-21T23:43:51.118Z,6.15
2023-11-21T23:46:24.476Z,6.08
2023-11-21T23:48:56.235Z,6.02
2023-11-21T23:51:28.117Z,6.13
2023-11-21T23:54:00.221Z,6.09
2023-11-21T23:56:32.207Z,6.04
2023-11-21T23:59:03.796Z,6.03
